EIN34G EIDW-LSZH
Flight info
| Callsign | EIN34G |
|---|---|
| Flight time | N/A |
| Altitude | 35000 |
| Route | ENDEQ3J ENDEQ Q36 EPOXI L15 FINMA DCT CHT DCT ITVIP DCT KONAN UL607 KOK DCT CIV DCT SUTAL DCT GTQ DCT BAMEV DCT BLM |
| Aircraft | A320/M-SDE3FGHIRWY/LB1 |
Departure
| Time | N/A |
|---|---|
| Airport | Dublin Airport (EIDW) |
Arrival
| Time | 2026-05-06 14:48 |
|---|---|
| Airport | Zürich Airport (LSZH) |
| Time | Latitude | Longitude | Altitude | Speed | Heading |
|---|---|---|---|---|---|
| 2026-05-06 13:56 | 50.55255 | 3.88144 | 34886 ft | 448 kts | 125° |
| 2026-05-06 13:56 | 50.51888 | 3.96379 | 34893 ft | 448 kts | 123° |
| 2026-05-06 13:57 | 50.48553 | 4.04643 | 34894 ft | 448 kts | 124° |
| 2026-05-06 13:57 | 50.45163 | 4.12853 | 34883 ft | 448 kts | 125° |
| 2026-05-06 13:58 | 50.41738 | 4.21014 | 34892 ft | 448 kts | 125° |
| 2026-05-06 13:58 | 50.38332 | 4.29112 | 34887 ft | 448 kts | 125° |
| 2026-05-06 13:59 | 50.34911 | 4.37277 | 34892 ft | 448 kts | 124° |
| 2026-05-06 13:59 | 50.31487 | 4.45419 | 34883 ft | 448 kts | 125° |
| 2026-05-06 14:00 | 50.28057 | 4.53543 | 34887 ft | 447 kts | 125° |
| 2026-05-06 14:00 | 50.24645 | 4.61589 | 34881 ft | 447 kts | 125° |
| 2026-05-06 14:01 | 50.21205 | 4.69668 | 34889 ft | 447 kts | 125° |
| 2026-05-06 14:01 | 50.17761 | 4.77731 | 34888 ft | 446 kts | 125° |
| 2026-05-06 14:02 | 50.14317 | 4.85784 | 34883 ft | 446 kts | 125° |
| 2026-05-06 14:02 | 50.10894 | 4.93765 | 34882 ft | 446 kts | 125° |
| 2026-05-06 14:03 | 50.07444 | 5.01785 | 34865 ft | 446 kts | 126° |
| 2026-05-06 14:03 | 50.03981 | 5.09808 | 34847 ft | 447 kts | 126° |
| 2026-05-06 14:04 | 50.00507 | 5.17836 | 34837 ft | 448 kts | 126° |
| 2026-05-06 14:04 | 49.97024 | 5.25857 | 34843 ft | 448 kts | 126° |
| 2026-05-06 14:05 | 49.93554 | 5.33828 | 34831 ft | 448 kts | 126° |
| 2026-05-06 14:05 | 49.90053 | 5.41845 | 34835 ft | 449 kts | 126° |
| 2026-05-06 14:06 | 49.86545 | 5.49843 | 34823 ft | 448 kts | 126° |
| 2026-05-06 14:06 | 49.83039 | 5.57826 | 34833 ft | 448 kts | 127° |
| 2026-05-06 14:07 | 49.79548 | 5.65741 | 34831 ft | 448 kts | 127° |
| 2026-05-06 14:07 | 49.76032 | 5.73684 | 34835 ft | 447 kts | 127° |
| 2026-05-06 14:08 | 49.72514 | 5.81618 | 34832 ft | 447 kts | 127° |
| 2026-05-06 14:08 | 49.68989 | 5.89545 | 34832 ft | 448 kts | 127° |
| 2026-05-06 14:09 | 49.65460 | 5.97457 | 34841 ft | 447 kts | 127° |
| 2026-05-06 14:09 | 49.61948 | 6.05300 | 34848 ft | 447 kts | 127° |
| 2026-05-06 14:10 | 49.58414 | 6.13177 | 34848 ft | 446 kts | 127° |
| 2026-05-06 14:10 | 49.54891 | 6.20998 | 34850 ft | 446 kts | 127° |
| 2026-05-06 14:11 | 49.51350 | 6.28824 | 34834 ft | 445 kts | 128° |
| 2026-05-06 14:11 | 49.47633 | 6.36308 | 34831 ft | 441 kts | 138° |
| 2026-05-06 14:12 | 49.42752 | 6.41802 | 34826 ft | 434 kts | 156° |
| 2026-05-06 14:12 | 49.37247 | 6.45574 | 34817 ft | 433 kts | 158° |
| 2026-05-06 14:13 | 49.31733 | 6.49316 | 34813 ft | 433 kts | 158° |
| 2026-05-06 14:13 | 49.26217 | 6.53069 | 34812 ft | 434 kts | 158° |
| 2026-05-06 14:14 | 49.20732 | 6.56784 | 34813 ft | 434 kts | 158° |
| 2026-05-06 14:14 | 49.15203 | 6.60511 | 34822 ft | 434 kts | 158° |
| 2026-05-06 14:15 | 49.09668 | 6.64227 | 34807 ft | 435 kts | 158° |
| 2026-05-06 14:15 | 49.04132 | 6.67943 | 34812 ft | 435 kts | 158° |
| 2026-05-06 14:16 | 48.98632 | 6.71628 | 34809 ft | 435 kts | 159° |
| 2026-05-06 14:16 | 48.93040 | 6.75114 | 34814 ft | 434 kts | 161° |
| 2026-05-06 14:17 | 48.87395 | 6.78373 | 34822 ft | 434 kts | 161° |
| 2026-05-06 14:17 | 48.81746 | 6.81638 | 34822 ft | 434 kts | 161° |
| 2026-05-06 14:18 | 48.76149 | 6.84934 | 34818 ft | 435 kts | 161° |
| 2026-05-06 14:18 | 48.70517 | 6.88262 | 34818 ft | 435 kts | 161° |
| 2026-05-06 14:19 | 48.64876 | 6.91581 | 34817 ft | 435 kts | 161° |
| 2026-05-06 14:19 | 48.59241 | 6.94885 | 34791 ft | 435 kts | 161° |
| 2026-05-06 14:20 | 48.53607 | 6.98187 | 34803 ft | 434 kts | 161° |
| 2026-05-06 14:20 | 48.50828 | 6.99812 | 34665 ft | 434 kts | 161° |
| 2026-05-06 14:20 | 48.48013 | 7.01454 | 34428 ft | 433 kts | 161° |
| 2026-05-06 14:21 | 48.45203 | 7.03087 | 34190 ft | 433 kts | 161° |
| 2026-05-06 14:21 | 48.42393 | 7.04718 | 33968 ft | 432 kts | 161° |
| 2026-05-06 14:21 | 48.39588 | 7.06347 | 33722 ft | 432 kts | 161° |
| 2026-05-06 14:21 | 48.36786 | 7.07974 | 33449 ft | 432 kts | 161° |
| 2026-05-06 14:22 | 48.33986 | 7.09597 | 33171 ft | 431 kts | 161° |
| 2026-05-06 14:22 | 48.31189 | 7.11214 | 32899 ft | 431 kts | 161° |
| 2026-05-06 14:22 | 48.28430 | 7.12805 | 32634 ft | 430 kts | 161° |
| 2026-05-06 14:22 | 48.25638 | 7.14412 | 32372 ft | 430 kts | 161° |
| 2026-05-06 14:23 | 48.22845 | 7.16019 | 32110 ft | 429 kts | 161° |
| 2026-05-06 14:23 | 48.20062 | 7.17621 | 31847 ft | 428 kts | 161° |
| 2026-05-06 14:23 | 48.17284 | 7.19221 | 31582 ft | 427 kts | 160° |
| 2026-05-06 14:23 | 48.14508 | 7.20818 | 31332 ft | 427 kts | 160° |
| 2026-05-06 14:24 | 48.11736 | 7.22413 | 31083 ft | 427 kts | 160° |
| 2026-05-06 14:24 | 48.08968 | 7.24003 | 30830 ft | 426 kts | 160° |
| 2026-05-06 14:24 | 48.06201 | 7.25587 | 30028 ft | 427 kts | 160° |
| 2026-05-06 14:24 | 48.03458 | 7.27153 | 29097 ft | 426 kts | 160° |
| 2026-05-06 14:25 | 48.00714 | 7.28721 | 28502 ft | 418 kts | 160° |
| 2026-05-06 14:25 | 47.98018 | 7.30262 | 27865 ft | 412 kts | 160° |
| 2026-05-06 14:25 | 47.95361 | 7.31777 | 27233 ft | 407 kts | 160° |
| 2026-05-06 14:25 | 47.92727 | 7.33279 | 26608 ft | 402 kts | 160° |
| 2026-05-06 14:26 | 47.90128 | 7.34762 | 26004 ft | 398 kts | 160° |
| 2026-05-06 14:26 | 47.87550 | 7.36229 | 25410 ft | 395 kts | 160° |
| 2026-05-06 14:26 | 47.85031 | 7.37661 | 24828 ft | 391 kts | 160° |
| 2026-05-06 14:26 | 47.82494 | 7.39100 | 24198 ft | 389 kts | 160° |
| 2026-05-06 14:27 | 47.79967 | 7.40530 | 23578 ft | 388 kts | 160° |
| 2026-05-06 14:27 | 47.77441 | 7.41961 | 22883 ft | 387 kts | 160° |
| 2026-05-06 14:27 | 47.74936 | 7.43381 | 22306 ft | 384 kts | 160° |
| 2026-05-06 14:27 | 47.72451 | 7.44787 | 21709 ft | 381 kts | 160° |
| 2026-05-06 14:28 | 47.69977 | 7.46182 | 21113 ft | 379 kts | 160° |
| 2026-05-06 14:28 | 47.67541 | 7.47628 | 20631 ft | 375 kts | 154° |
| 2026-05-06 14:28 | 47.65340 | 7.49670 | 20150 ft | 373 kts | 142° |
| 2026-05-06 14:28 | 47.63526 | 7.52315 | 19731 ft | 372 kts | 130° |
| 2026-05-06 14:29 | 47.62091 | 7.55577 | 19473 ft | 382 kts | 118° |
| 2026-05-06 14:29 | 47.61106 | 7.59251 | 19167 ft | 386 kts | 111° |
| 2026-05-06 14:29 | 47.60232 | 7.63007 | 18856 ft | 385 kts | 111° |
| 2026-05-06 14:29 | 47.59359 | 7.66752 | 18552 ft | 384 kts | 111° |
| 2026-05-06 14:30 | 47.58482 | 7.70500 | 18240 ft | 383 kts | 112° |
| 2026-05-06 14:30 | 47.57621 | 7.74169 | 17911 ft | 382 kts | 112° |
| 2026-05-06 14:30 | 47.56746 | 7.77878 | 17600 ft | 381 kts | 111° |
| 2026-05-06 14:30 | 47.55871 | 7.81580 | 17309 ft | 380 kts | 111° |
| 2026-05-06 14:31 | 47.54998 | 7.85277 | 17020 ft | 380 kts | 112° |
| 2026-05-06 14:31 | 47.54130 | 7.88957 | 16710 ft | 379 kts | 112° |
| 2026-05-06 14:31 | 47.53261 | 7.92632 | 16405 ft | 378 kts | 112° |
| 2026-05-06 14:31 | 47.52394 | 7.96291 | 16108 ft | 377 kts | 112° |
| 2026-05-06 14:32 | 47.51526 | 7.99942 | 15817 ft | 376 kts | 112° |
| 2026-05-06 14:32 | 47.50593 | 8.03535 | 15522 ft | 372 kts | 118° |
| 2026-05-06 14:32 | 47.49310 | 8.06767 | 15237 ft | 368 kts | 128° |
| 2026-05-06 14:32 | 47.47865 | 8.09879 | 14949 ft | 367 kts | 127° |
| 2026-05-06 14:33 | 47.46425 | 8.12993 | 14659 ft | 367 kts | 127° |
| 2026-05-06 14:33 | 47.44988 | 8.16107 | 14364 ft | 366 kts | 127° |
| 2026-05-06 14:33 | 47.43557 | 8.19213 | 14083 ft | 365 kts | 127° |
| 2026-05-06 14:33 | 47.42130 | 8.22303 | 13799 ft | 364 kts | 127° |
| 2026-05-06 14:34 | 47.40705 | 8.25386 | 13499 ft | 363 kts | 127° |
| 2026-05-06 14:34 | 47.39284 | 8.28458 | 13208 ft | 362 kts | 128° |
| 2026-05-06 14:34 | 47.37884 | 8.31478 | 12924 ft | 361 kts | 128° |
| 2026-05-06 14:34 | 47.36506 | 8.34576 | 12636 ft | 363 kts | 122° |
| 2026-05-06 14:35 | 47.35502 | 8.38012 | 12356 ft | 367 kts | 110° |
| 2026-05-06 14:35 | 47.35009 | 8.41712 | 12065 ft | 370 kts | 98° |
| 2026-05-06 14:35 | 47.34760 | 8.45489 | 11792 ft | 369 kts | 98° |
| 2026-05-06 14:35 | 47.34500 | 8.49255 | 11500 ft | 369 kts | 98° |
| 2026-05-06 14:36 | 47.34233 | 8.53006 | 11210 ft | 367 kts | 99° |
| 2026-05-06 14:36 | 47.33961 | 8.56747 | 10923 ft | 366 kts | 99° |
| 2026-05-06 14:36 | 47.33688 | 8.60476 | 10639 ft | 364 kts | 99° |
| 2026-05-06 14:36 | 47.33423 | 8.64120 | 10463 ft | 351 kts | 99° |
| 2026-05-06 14:37 | 47.33179 | 8.67547 | 10333 ft | 328 kts | 99° |
| 2026-05-06 14:37 | 47.32949 | 8.70813 | 9934 ft | 314 kts | 99° |
| 2026-05-06 14:37 | 47.32722 | 8.73969 | 9574 ft | 307 kts | 98° |
| 2026-05-06 14:37 | 47.32491 | 8.77115 | 9435 ft | 310 kts | 98° |
| 2026-05-06 14:38 | 47.32257 | 8.80272 | 9302 ft | 311 kts | 98° |
| 2026-05-06 14:38 | 47.32022 | 8.83434 | 9164 ft | 309 kts | 98° |
| 2026-05-06 14:38 | 47.31789 | 8.86578 | 9030 ft | 308 kts | 98° |
| 2026-05-06 14:38 | 47.31557 | 8.89717 | 8894 ft | 308 kts | 98° |
| 2026-05-06 14:39 | 47.31329 | 8.92805 | 8776 ft | 307 kts | 98° |
| 2026-05-06 14:39 | 47.31105 | 8.95928 | 8538 ft | 306 kts | 95° |
| 2026-05-06 14:39 | 47.31371 | 8.99015 | 8280 ft | 305 kts | 68° |
| 2026-05-06 14:39 | 47.32509 | 9.01600 | 8030 ft | 301 kts | 41° |
| 2026-05-06 14:40 | 47.34252 | 9.03171 | 7761 ft | 290 kts | 13° |
| 2026-05-06 14:40 | 47.36220 | 9.03669 | 7515 ft | 287 kts | 1° |
| 2026-05-06 14:40 | 47.38193 | 9.03745 | 7275 ft | 278 kts | 346° |
| 2026-05-06 14:40 | 47.39953 | 9.02905 | 7149 ft | 257 kts | 327° |
| 2026-05-06 14:41 | 47.41317 | 9.01398 | 6924 ft | 243 kts | 309° |
| 2026-05-06 14:41 | 47.42258 | 8.99407 | 6662 ft | 233 kts | 291° |
| 2026-05-06 14:41 | 47.42722 | 8.97168 | 6422 ft | 225 kts | 276° |
| 2026-05-06 14:41 | 47.42891 | 8.94927 | 6193 ft | 213 kts | 274° |
| 2026-05-06 14:42 | 47.43050 | 8.92812 | 5987 ft | 199 kts | 274° |
| 2026-05-06 14:42 | 47.43196 | 8.90859 | 5808 ft | 191 kts | 274° |
| 2026-05-06 14:42 | 47.43338 | 8.88941 | 5672 ft | 184 kts | 274° |
| 2026-05-06 14:42 | 47.43474 | 8.87116 | 5491 ft | 175 kts | 274° |
| 2026-05-06 14:43 | 47.43603 | 8.85375 | 5338 ft | 167 kts | 274° |
| 2026-05-06 14:43 | 47.43724 | 8.83726 | 5240 ft | 154 kts | 274° |
| 2026-05-06 14:43 | 47.43838 | 8.82186 | 5116 ft | 149 kts | 274° |
| 2026-05-06 14:43 | 47.43949 | 8.80675 | 4936 ft | 147 kts | 274° |
| 2026-05-06 14:44 | 47.44059 | 8.79165 | 4741 ft | 150 kts | 273° |
| 2026-05-06 14:44 | 47.44173 | 8.77606 | 4522 ft | 155 kts | 274° |
| 2026-05-06 14:44 | 47.44290 | 8.76018 | 4275 ft | 154 kts | 272° |
| 2026-05-06 14:45 | 47.44511 | 8.72981 | 3845 ft | 145 kts | 273° |
| 2026-05-06 14:45 | 47.44616 | 8.71543 | 3638 ft | 138 kts | 272° |
| 2026-05-06 14:45 | 47.44717 | 8.70154 | 3430 ft | 135 kts | 272° |
| 2026-05-06 14:45 | 47.44817 | 8.68779 | 3227 ft | 133 kts | 273° |
| 2026-05-06 14:46 | 47.44914 | 8.67425 | 3018 ft | 132 kts | 273° |
| 2026-05-06 14:46 | 47.45010 | 8.66096 | 2835 ft | 131 kts | 272° |
| 2026-05-06 14:46 | 47.45106 | 8.64768 | 2640 ft | 131 kts | 272° |
| 2026-05-06 14:46 | 47.45203 | 8.63419 | 2432 ft | 133 kts | 274° |
| 2026-05-06 14:47 | 47.45301 | 8.62058 | 2229 ft | 133 kts | 275° |
| 2026-05-06 14:47 | 47.45398 | 8.60701 | 2044 ft | 132 kts | 273° |
| 2026-05-06 14:47 | 47.45489 | 8.59349 | 1817 ft | 134 kts | 276° |
| 2026-05-06 14:47 | 47.45592 | 8.57978 | 1618 ft | 134 kts | 275° |
| 2026-05-06 14:48 | 47.45652 | 8.57146 | 1486 ft | 133 kts | 272° |
| 2026-05-06 14:48 | 47.45735 | 8.55836 | 1416 ft | 117 kts | 276° |
| 2026-05-06 14:48 | 47.45804 | 8.54882 | 1390 ft | 55 kts | 277° |
| 2026-05-06 14:48 | 47.45821 | 8.54532 | 1389 ft | 23 kts | 259° |
| 2026-05-06 14:49 | 47.45774 | 8.54321 | 1387 ft | 16 kts | 245° |
| 2026-05-06 14:49 | 47.45756 | 8.54263 | 1384 ft | 7 kts | 245° |
| 2026-05-06 14:49 | 47.45705 | 8.54208 | 1384 ft | 11 kts | 196° |
| 2026-05-06 14:49 | 47.45628 | 8.54238 | 1385 ft | 12 kts | 136° |
| 2026-05-06 14:50 | 47.45600 | 8.54334 | 1384 ft | 9 kts | 109° |
| 2026-05-06 14:50 | 47.45583 | 8.54410 | 1385 ft | 7 kts | 108° |
| 2026-05-06 14:50 | 47.45571 | 8.54464 | 1388 ft | 5 kts | 108° |
| 2026-05-06 14:50 | 47.45563 | 8.54498 | 1389 ft | 2 kts | 108° |
| 2026-05-06 14:51 | 47.45560 | 8.54512 | 1386 ft | 0 kts | 107° |
| 2026-05-06 14:51 | 47.45558 | 8.54524 | 1388 ft | 4 kts | 107° |
| 2026-05-06 14:51 | 47.45543 | 8.54593 | 1386 ft | 10 kts | 107° |
| 2026-05-06 14:51 | 47.45515 | 8.54726 | 1398 ft | 17 kts | 108° |
| 2026-05-06 14:52 | 47.45471 | 8.54918 | 1395 ft | 21 kts | 109° |
| 2026-05-06 14:52 | 47.45428 | 8.55100 | 1405 ft | 17 kts | 109° |
| 2026-05-06 14:52 | 47.45389 | 8.55249 | 1399 ft | 14 kts | 114° |
| 2026-05-06 14:52 | 47.45393 | 8.55361 | 1404 ft | 10 kts | 39° |
| 2026-05-06 14:53 | 47.45447 | 8.55400 | 1407 ft | 7 kts | 26° |
| 2026-05-06 14:53 | 47.45479 | 8.55423 | 1408 ft | 5 kts | 26° |
| 2026-05-06 14:53 | 47.45519 | 8.55460 | 1408 ft | 7 kts | 46° |
| 2026-05-06 14:53 | 47.45524 | 8.55537 | 1408 ft | 8 kts | 91° |
| 2026-05-06 14:54 | 47.45518 | 8.55586 | 1407 ft | 1 kts | 102° |
| 2026-05-06 14:54 | 47.45518 | 8.55587 | 1407 ft | 0 kts | 102° |
| 2026-05-06 14:54 | 47.45518 | 8.55591 | 1407 ft | 3 kts | 102° |
| 2026-05-06 14:55 | 47.45491 | 8.55645 | 1410 ft | 8 kts | 163° |
| 2026-05-06 14:55 | 47.45442 | 8.55636 | 1409 ft | 0 kts | 186° |
| 2026-05-06 14:55 | 47.45434 | 8.55635 | 1410 ft | 2 kts | 185° |
| 2026-05-06 14:55 | 47.45432 | 8.55634 | 1410 ft | 0 kts | 185° |